Mimoso do Sul, Brazil
Current Conditions -  °F | °C
As of 10:00 AM on Friday 24 Oct 2014 (Local Time) from SBCP Reporting Station
Broken Clouds Broken Clouds  
Wind Chill: 79°   Ceiling: 2000
Heat Index: 80°   Visibility: 6mi
Dew Point: 63°   Wind: 14mph
Humidity: 57%   Direction: 70°ENE
Pressure: 30.06"   Gusts: NA
Location:  21.06°S, 41.37°W
Report Text: SBCP 241200Z 07012KT 9999 BKN020 26/17 Q1018
Loading
Personal Weather Stations






























Interactive Weather Map
Tropical Storm Tracking
New forecast layout! Learn more

10-Day Weather Forecast

Advertisements
Track Severe Weather on mobile